createdAt,value
2022-10-28T00:01:10.039Z,100359.47
2022-10-28T00:03:45.809Z,100343.53
2022-10-28T00:06:18.733Z,100343.66
2022-10-28T00:08:45.641Z,100347.19
2022-10-28T00:11:18.326Z,100340.16
2022-10-28T00:13:46.156Z,100331.47
2022-10-28T00:16:15.860Z,100353.56
2022-10-28T00:18:43.325Z,100359.81
2022-10-28T00:21:19.731Z,100352.91
2022-10-28T00:23:46.921Z,100362.56
2022-10-28T00:26:17.297Z,100353.75
2022-10-28T00:28:50.661Z,100341.44
2022-10-28T00:31:19.589Z,100349.41
2022-10-28T00:33:47.315Z,100341.44
2022-10-28T00:36:26.035Z,100349.59
2022-10-28T00:38:54.577Z,100352.03
2022-10-28T00:41:34.703Z,100360.97
2022-10-28T00:44:40.271Z,100356.75
2022-10-28T00:47:16.579Z,100347.81
2022-10-28T00:49:45.758Z,100346.13
2022-10-28T00:52:18.706Z,100339.97
2022-10-28T00:54:46.132Z,100338.25
2022-10-28T00:57:17.617Z,100337.41
2022-10-28T00:59:48.849Z,100336.59
2022-10-28T01:02:16.235Z,100345.47
2022-10-28T01:04:44.254Z,100344.84
2022-10-28T01:07:11.546Z,100344.75
2022-10-28T01:09:40.682Z,100340.38
2022-10-28T01:12:25.355Z,100341.41
2022-10-28T01:15:03.883Z,100336.03
2022-10-28T01:18:18.220Z,100331.56
2022-10-28T01:21:03.819Z,100317.66
2022-10-28T01:23:39.364Z,100322.97
2022-10-28T01:26:34.909Z,100322.13
2022-10-28T01:29:20.684Z,100308.94
2022-10-28T01:32:11.564Z,100308.13
2022-10-28T01:35:00.901Z,100299.38
2022-10-28T01:37:30.557Z,100298.56
2022-10-28T01:40:29.714Z,100294.94
2022-10-28T01:43:07.981Z,100290.63
2022-10-28T01:45:42.428Z,100284.34
2022-10-28T01:48:12.786Z,100282.66
2022-10-28T01:51:01.378Z,100276.59
2022-10-28T01:53:33.992Z,100275.63
2022-10-28T01:56:05.701Z,100268.63
2022-10-28T01:58:34.150Z,100259.81
2022-10-28T02:01:06.168Z,100247.41
2022-10-28T02:03:33.034Z,100257.16
2022-10-28T02:06:05.192Z,100244.75
2022-10-28T02:08:53.093Z,100238.72
2022-10-28T02:11:22.742Z,100249.34
2022-10-28T02:14:01.923Z,100245.94
2022-10-28T02:16:36.181Z,100255.56
2022-10-28T02:19:28.660Z,100239.78
2022-10-28T02:22:14.176Z,100235.34
2022-10-28T02:24:51.055Z,100228.44
2022-10-28T02:27:17.892Z,100229.38
2022-10-28T02:30:00.303Z,100227.69
2022-10-28T02:32:31.454Z,100241.78
2022-10-28T02:34:59.387Z,100239.34
2022-10-28T02:37:32.913Z,100245.50
2022-10-28T02:40:06.973Z,100230.44
2022-10-28T02:42:37.431Z,100221.56
2022-10-28T02:45:16.933Z,100219.00
2022-10-28T02:47:52.083Z,100203.22
2022-10-28T02:50:24.989Z,100193.53
2022-10-28T02:52:57.177Z,100205.00
2022-10-28T02:55:30.781Z,100195.25
2022-10-28T02:57:58.317Z,100185.72
2022-10-28T03:00:25.262Z,100187.38
2022-10-28T03:02:52.219Z,100182.94
2022-10-28T03:05:19.227Z,100177.63
2022-10-28T03:07:46.100Z,100182.22
2022-10-28T03:10:12.941Z,100181.25
2022-10-28T03:12:42.812Z,100177.84
2022-10-28T03:15:10.119Z,100178.69
2022-10-28T03:17:36.916Z,100175.09
2022-10-28T03:20:03.949Z,100177.13
2022-10-28T03:22:30.867Z,100178.06
2022-10-28T03:24:57.691Z,100164.81
2022-10-28T03:27:24.629Z,100156.84
2022-10-28T03:29:51.411Z,100159.50
2022-10-28T03:32:18.327Z,100156.84
2022-10-28T03:34:45.265Z,100151.53
2022-10-28T03:37:12.173Z,100152.53
2022-10-28T03:39:38.988Z,100137.56
2022-10-28T03:42:05.906Z,100128.88
2022-10-28T03:44:32.716Z,100118.28
2022-10-28T03:46:59.535Z,100113.81
2022-10-28T03:49:26.419Z,100093.56
2022-10-28T03:51:53.259Z,100091.88
2022-10-28T03:54:20.131Z,100076.91
2022-10-28T03:56:46.948Z,100077.78
2022-10-28T03:59:16.332Z,100054.22
2022-10-28T04:01:46.181Z,100070.75
2022-10-28T04:04:13.105Z,100074.38
2022-10-28T04:06:39.935Z,100078.84
2022-10-28T04:09:06.748Z,100074.50
2022-10-28T04:11:33.660Z,100062.09
2022-10-28T04:14:00.501Z,100072.91
2022-10-28T04:16:27.368Z,100069.41
2022-10-28T04:18:54.194Z,100055.19
2022-10-28T04:21:21.068Z,100060.59
2022-10-28T04:23:47.921Z,100052.66
2022-10-28T04:26:15.648Z,100053.63
2022-10-28T04:28:42.538Z,100063.38
2022-10-28T04:31:10.525Z,100053.63
2022-10-28T04:33:37.359Z,100050.25
2022-10-28T04:36:04.483Z,100051.91
2022-10-28T04:38:31.352Z,100048.53
2022-10-28T04:40:58.265Z,100048.53
2022-10-28T04:43:25.163Z,100042.38
2022-10-28T04:45:52.013Z,100032.63
2022-10-28T04:48:18.857Z,100018.66
2022-10-28T04:50:45.928Z,100008.06
2022-10-28T04:53:13.474Z,100015.03
2022-10-28T04:55:40.350Z,100002.84
2022-10-28T04:58:07.271Z,99999.34
2022-10-28T05:00:34.060Z,99999.34
2022-10-28T05:03:04.289Z,99994.88
2022-10-28T05:05:31.344Z,99967.78
2022-10-28T05:07:58.433Z,99958.00
2022-10-28T05:10:25.712Z,99966.81
2022-10-28T05:12:52.561Z,99963.22
2022-10-28T05:15:19.443Z,99965.00
2022-10-28T05:17:47.592Z,99968.50
2022-10-28T05:20:17.607Z,99957.28
2022-10-28T05:22:54.077Z,99965.22
2022-10-28T05:25:22.147Z,99963.44
2022-10-28T05:27:49.054Z,99966.94
2022-10-28T05:30:16.124Z,99966.94
2022-10-28T05:32:43.049Z,99962.34
2022-10-28T05:35:10.888Z,99956.00
2022-10-28T05:37:38.134Z,99955.88
2022-10-28T05:40:05.246Z,99943.47
2022-10-28T05:42:32.063Z,99939.88
2022-10-28T05:44:58.903Z,99939.72
2022-10-28T05:47:25.856Z,99941.31
2022-10-28T05:49:52.702Z,99921.94
2022-10-28T05:52:19.536Z,99928.81
2022-10-28T05:54:46.402Z,99914.59
2022-10-28T05:57:13.448Z,99896.03
2022-10-28T05:59:40.345Z,99884.47
2022-10-28T06:02:14.202Z,99860.63
2022-10-28T06:04:42.096Z,99867.59
2022-10-28T06:07:09.189Z,99867.59
2022-10-28T06:09:36.330Z,99867.59
2022-10-28T06:12:01.758Z,99856.16
2022-10-28T06:14:28.565Z,99864.22
2022-10-28T06:16:55.534Z,99878.19
2022-10-28T06:19:22.411Z,99888.69
2022-10-28T06:21:49.299Z,99888.56
2022-10-28T06:24:16.168Z,99888.78
2022-10-28T06:26:43.088Z,99889.06
2022-10-28T06:29:10.921Z,99870.59
2022-10-28T06:31:39.323Z,99866.28
2022-10-28T06:34:10.778Z,99858.19
2022-10-28T06:36:38.488Z,99836.25
2022-10-28T06:39:05.845Z,99832.63
2022-10-28T06:41:33.630Z,99832.75
2022-10-28T06:44:00.889Z,99831.81
2022-10-28T06:46:28.199Z,99809.63
2022-10-28T06:48:57.267Z,99806.13
2022-10-28T06:51:24.721Z,99803.38
2022-10-28T06:53:52.723Z,99790.97
2022-10-28T06:56:19.679Z,99783.84
2022-10-28T06:58:51.132Z,99769.63
2022-10-28T07:01:18.922Z,99761.56
2022-10-28T07:03:46.897Z,99758.81
2022-10-28T07:09:01.367Z,99761.09
2022-10-28T07:11:28.362Z,99772.53
2022-10-28T07:13:55.278Z,99760.00
2022-10-28T07:16:22.273Z,99750.25
2022-10-28T07:18:49.332Z,99756.41
2022-10-28T07:21:18.646Z,99753.63
2022-10-28T07:23:47.696Z,99755.09
2022-10-28T07:26:14.763Z,99751.44
2022-10-28T07:28:44.940Z,99732.78
2022-10-28T07:33:58.759Z,99737.00
2022-10-28T07:36:25.993Z,99744.00
2022-10-28T07:38:53.064Z,99737.72
2022-10-28T07:41:21.489Z,99750.03
2022-10-28T07:43:49.004Z,99764.97
2022-10-28T07:46:17.098Z,99755.34
2022-10-28T07:48:44.173Z,99749.91
2022-10-28T07:51:14.427Z,99758.72
2022-10-28T07:53:41.920Z,99739.28
2022-10-28T07:56:13.464Z,99735.69
2022-10-28T07:58:42.463Z,99739.19
2022-10-28T08:01:10.704Z,99728.69
2022-10-28T08:03:39.192Z,99740.16
2022-10-28T08:06:12.572Z,99727.84
2022-10-28T08:08:40.052Z,99721.59
2022-10-28T08:11:15.261Z,99718.94
2022-10-28T08:13:42.610Z,99706.38
2022-10-28T08:16:10.069Z,99692.28
2022-10-28T08:18:38.226Z,99682.66
2022-10-28T08:21:07.492Z,99690.47
2022-10-28T08:23:34.493Z,99686.88
2022-10-28T08:26:02.401Z,99687.81
2022-10-28T08:28:29.514Z,99683.25
2022-10-28T08:31:08.665Z,99700.22
2022-10-28T08:33:38.515Z,99700.13
2022-10-28T08:36:07.078Z,99697.47
2022-10-28T08:38:34.128Z,99697.47
2022-10-28T08:41:16.106Z,99688.56
2022-10-28T08:43:57.223Z,99681.56
2022-10-28T08:46:42.716Z,99666.50
2022-10-28T08:49:14.809Z,99670.00
2022-10-28T08:52:03.910Z,99672.66
2022-10-28T08:54:36.641Z,99665.66
2022-10-28T08:57:12.559Z,99651.44
2022-10-28T08:59:42.651Z,99653.25
2022-10-28T09:02:33.525Z,99650.69
2022-10-28T09:05:20.908Z,99637.44
2022-10-28T09:07:48.212Z,99635.78
2022-10-28T09:10:17.057Z,99625.16
2022-10-28T09:13:11.700Z,99619.72
2022-10-28T09:16:15.220Z,99589.69
2022-10-28T09:18:59.579Z,99600.56
2022-10-28T09:21:41.405Z,99594.28
2022-10-28T09:24:20.568Z,99601.41
2022-10-28T09:27:17.059Z,99591.88
2022-10-28T09:30:07.607Z,99602.50
2022-10-28T09:32:47.481Z,99613.09
2022-10-28T09:35:18.208Z,99619.50
2022-10-28T09:37:48.870Z,99625.66
2022-10-28T09:40:18.858Z,99638.06
2022-10-28T09:43:08.118Z,99652.16
2022-10-28T09:45:40.413Z,99651.31
2022-10-28T09:48:19.644Z,99645.91
2022-10-28T09:50:51.188Z,99650.94
2022-10-28T09:53:36.057Z,99660.44
2022-10-28T09:58:35.548Z,99662.75
2022-10-28T10:01:05.322Z,99658.16
2022-10-28T10:03:33.159Z,99684.69
2022-10-28T10:06:13.952Z,99691.69
2022-10-28T10:08:42.371Z,99716.19
2022-10-28T10:11:25.197Z,99709.78
2022-10-28T10:13:53.256Z,99717.97
2022-10-28T10:16:35.227Z,99727.75
2022-10-28T10:19:06.668Z,99738.34
2022-10-28T10:21:50.187Z,99756.81
2022-10-28T10:24:33.888Z,99775.38
2022-10-28T10:27:21.331Z,99786.47
2022-10-28T10:29:50.747Z,99788.16
2022-10-28T10:32:33.367Z,99786.22
2022-10-28T10:35:18.579Z,99797.69
2022-10-28T10:37:47.302Z,99794.19
2022-10-28T10:40:31.467Z,99804.56
2022-10-28T10:43:22.569Z,99809.97
2022-10-28T10:45:59.157Z,99824.84
2022-10-28T10:48:26.247Z,99807.22
2022-10-28T10:50:54.986Z,99822.28
2022-10-28T10:53:32.927Z,99820.59
2022-10-28T10:56:03.965Z,99832.91
2022-10-28T10:58:34.642Z,99846.06
2022-10-28T11:01:06.088Z,99864.63
2022-10-28T11:03:40.432Z,99878.72
2022-10-28T11:06:23.116Z,99878.63
2022-10-28T11:08:59.282Z,99901.50
2022-10-28T11:11:40.313Z,99930.69
2022-10-28T11:14:22.771Z,99933.25
2022-10-28T11:16:51.083Z,99939.41
2022-10-28T11:19:37.948Z,99950.84
2022-10-28T11:22:23.669Z,99952.53
2022-10-28T11:25:32.145Z,99963.16
2022-10-28T11:28:13.656Z,99961.34
2022-10-28T11:30:54.239Z,99962.06
2022-10-28T11:33:39.183Z,99965.72
2022-10-28T11:36:31.769Z,99971.75
2022-10-28T11:39:26.268Z,99973.41
2022-10-28T11:41:56.242Z,99993.69
2022-10-28T11:47:30.033Z,100016.63
2022-10-28T11:50:03.656Z,100007.81
2022-10-28T11:52:52.370Z,100028.19
2022-10-28T11:55:37.334Z,100032.03
2022-10-28T11:58:21.453Z,100038.31
2022-10-28T12:01:03.399Z,100027.91
2022-10-28T12:03:54.272Z,100045.53
2022-10-28T12:06:21.461Z,100039.38
2022-10-28T12:08:48.328Z,100044.56
2022-10-28T12:11:47.461Z,100033.00
2022-10-28T12:14:32.899Z,100047.97
2022-10-28T12:17:06.919Z,100057.59
2022-10-28T12:19:40.189Z,100057.38
2022-10-28T12:22:12.178Z,100062.69
2022-10-28T12:24:43.560Z,100077.75
2022-10-28T12:27:19.393Z,100075.00
2022-10-28T12:29:51.760Z,100084.53
2022-10-28T12:32:32.936Z,100097.91
2022-10-28T12:35:03.342Z,100102.25
2022-10-28T12:37:50.226Z,100104.91
2022-10-28T12:40:21.519Z,100121.56
2022-10-28T12:42:56.674Z,100124.13
2022-10-28T12:45:24.442Z,100125.94
2022-10-28T12:48:00.751Z,100141.84
2022-10-28T12:50:52.409Z,100154.13
2022-10-28T12:53:26.679Z,100154.13
2022-10-28T12:56:01.868Z,100157.78
2022-10-28T12:58:50.206Z,100163.94
2022-10-28T13:01:19.885Z,100170.06
2022-10-28T13:03:49.662Z,100181.97
2022-10-28T13:06:29.855Z,100173.50
2022-10-28T13:09:13.654Z,100174.47
2022-10-28T13:12:05.455Z,100188.59
2022-10-28T13:15:03.064Z,100184.03
2022-10-28T13:17:52.027Z,100183.81
2022-10-28T13:20:41.758Z,100181.75
2022-10-28T13:23:22.233Z,100182.50
2022-10-28T13:26:06.905Z,100184.31
2022-10-28T13:28:37.279Z,100185.03
2022-10-28T13:31:07.394Z,100185.69
2022-10-28T13:33:38.358Z,100189.16
2022-10-28T13:36:30.864Z,100184.69
2022-10-28T13:39:02.502Z,100175.78
2022-10-28T13:41:37.237Z,100180.25
2022-10-28T13:44:10.823Z,100182.78
2022-10-28T13:47:00.148Z,100188.19
2022-10-28T13:49:34.335Z,100197.88
2022-10-28T13:52:07.136Z,100190.00
2022-10-28T13:54:39.839Z,100194.25
2022-10-28T13:57:13.944Z,100192.22
2022-10-28T14:03:24.306Z,100190.69
2022-10-28T14:05:52.800Z,100201.09
2022-10-28T14:08:33.893Z,100201.59
2022-10-28T14:11:23.356Z,100203.28
2022-10-28T14:14:02.018Z,100210.06
2022-10-28T14:16:29.501Z,100211.53
2022-10-28T14:19:04.601Z,100221.06
2022-10-28T14:22:01.508Z,100226.06
2022-10-28T14:24:41.003Z,100225.06
2022-10-28T14:27:15.530Z,100225.72
2022-10-28T14:29:56.514Z,100221.13
2022-10-28T14:32:32.562Z,100223.78
2022-10-28T14:35:13.183Z,100239.38
2022-10-28T14:37:40.131Z,100227.69
2022-10-28T14:40:53.270Z,100238.41
2022-10-28T14:43:30.672Z,100237.47
2022-10-28T14:46:25.222Z,100250.50
2022-10-28T14:48:56.048Z,100258.59
2022-10-28T14:51:44.122Z,100255.31
2022-10-28T14:54:17.914Z,100258.00
2022-10-28T14:56:45.775Z,100258.00
2022-10-28T14:59:37.002Z,100258.59
2022-10-28T15:02:18.943Z,100268.13
2022-10-28T15:04:49.025Z,100264.09
2022-10-28T15:07:19.722Z,100264.13
2022-10-28T15:09:53.845Z,100271.66
2022-10-28T15:12:22.986Z,100260.78
2022-10-28T15:14:52.613Z,100269.75
2022-10-28T15:17:28.343Z,100273.66
2022-10-28T15:20:01.039Z,100276.81
2022-10-28T15:22:33.585Z,100276.56
2022-10-28T15:25:07.079Z,100280.56
2022-10-28T15:27:36.488Z,100281.16
2022-10-28T15:30:23.610Z,100282.75
2022-10-28T15:32:55.078Z,100290.50
2022-10-28T15:35:31.231Z,100286.25
2022-10-28T15:38:01.345Z,100280.09
2022-10-28T15:40:36.155Z,100275.63
2022-10-28T15:43:08.047Z,100268.97
2022-10-28T15:45:42.238Z,100267.75
2022-10-28T15:48:15.595Z,100260.88
2022-10-28T15:50:42.755Z,100271.91
2022-10-28T15:53:13.209Z,100270.31
2022-10-28T15:58:33.939Z,100277.09
2022-10-28T16:01:01.032Z,100280.72
2022-10-28T16:03:40.336Z,100270.91
2022-10-28T16:06:22.021Z,100280.25
2022-10-28T16:09:18.572Z,100284.09
2022-10-28T16:11:50.384Z,100281.78
2022-10-28T16:14:38.868Z,100277.31
2022-10-28T16:17:09.869Z,100275.38
2022-10-28T16:19:39.694Z,100284.81
2022-10-28T16:22:07.529Z,100279.97
2022-10-28T16:24:34.581Z,100281.56
2022-10-28T16:27:22.031Z,100280.22
2022-10-28T16:29:50.254Z,100291.00
2022-10-28T16:32:25.411Z,100298.38
2022-10-28T16:34:52.420Z,100306.38
2022-10-28T16:37:28.632Z,100300.81
2022-10-28T16:39:56.177Z,100299.88
2022-10-28T16:42:23.715Z,100309.09
2022-10-28T16:44:52.078Z,100320.09
2022-10-28T16:47:21.605Z,100337.38
2022-10-28T16:49:54.515Z,100332.81
2022-10-28T16:52:27.408Z,100324.69
2022-10-28T16:54:54.400Z,100333.28
2022-10-28T16:57:21.827Z,100333.06
2022-10-28T16:59:49.279Z,100335.72
2022-10-28T17:02:31.412Z,100340.06
2022-10-28T17:04:59.743Z,100336.78
2022-10-28T17:07:28.264Z,100335.59
2022-10-28T17:09:55.369Z,100340.53
2022-10-28T17:12:25.241Z,100345.63
2022-10-28T17:14:52.317Z,100352.44
2022-10-28T17:17:19.703Z,100353.16
2022-10-28T17:19:47.053Z,100364.50
2022-10-28T17:22:14.566Z,100359.06
2022-10-28T17:24:41.620Z,100364.50
2022-10-28T17:27:08.729Z,100363.41
2022-10-28T17:29:35.802Z,100370.44
2022-10-28T17:32:02.716Z,100367.31
2022-10-28T17:34:29.861Z,100361.59
2022-10-28T17:36:57.024Z,100365.13
2022-10-28T17:39:26.463Z,100355.44
2022-10-28T17:41:54.342Z,100362.84
2022-10-28T17:44:21.830Z,100358.47
2022-10-28T17:46:49.960Z,100359.56
2022-10-28T17:49:17.105Z,100353.13
2022-10-28T17:51:44.766Z,100347.44
2022-10-28T17:54:13.086Z,100348.53
2022-10-28T17:56:42.480Z,100349.00
2022-10-28T17:59:09.737Z,100359.06
2022-10-28T18:01:37.464Z,100355.53
2022-10-28T18:04:05.884Z,100339.06
2022-10-28T18:06:33.189Z,100351.16
2022-10-28T18:09:00.197Z,100351.75
2022-10-28T18:11:27.761Z,100345.97
2022-10-28T18:13:57.140Z,100349.22
2022-10-28T18:16:29.992Z,100347.28
2022-10-28T18:18:57.134Z,100353.22
2022-10-28T18:21:27.058Z,100356.34
2022-10-28T18:24:02.373Z,100355.59
2022-10-28T18:26:32.384Z,100362.03
2022-10-28T18:29:00.226Z,100363.75
2022-10-28T18:31:27.543Z,100367.97
2022-10-28T18:33:55.456Z,100361.53
2022-10-28T18:36:24.391Z,100384.06
2022-10-28T18:38:52.344Z,100380.91
2022-10-28T18:41:22.471Z,100388.66
2022-10-28T18:43:57.129Z,100376.63
2022-10-28T18:46:26.029Z,100389.13
2022-10-28T18:48:53.798Z,100393.63
2022-10-28T18:51:22.328Z,100390.94
2022-10-28T18:53:49.957Z,100391.56
2022-10-28T18:56:20.485Z,100392.28
2022-10-28T18:58:49.895Z,100393.97
2022-10-28T19:01:21.021Z,100401.97
2022-10-28T19:03:55.532Z,100403.94
2022-10-28T19:06:25.888Z,100409.50
2022-10-28T19:08:58.622Z,100414.13
2022-10-28T19:11:31.578Z,100411.56
2022-10-28T19:14:00.478Z,100410.72
2022-10-28T19:16:28.965Z,100412.56
2022-10-28T19:18:58.223Z,100418.59
2022-10-28T19:21:26.765Z,100410.38
2022-10-28T19:23:54.975Z,100418.47
2022-10-28T19:26:23.935Z,100423.69
2022-10-28T19:28:52.159Z,100419.06
2022-10-28T19:31:22.812Z,100428.78
2022-10-28T19:33:50.435Z,100432.41
2022-10-28T19:36:23.582Z,100422.84
2022-10-28T19:38:58.372Z,100450.59
2022-10-28T19:41:28.040Z,100441.03
2022-10-28T19:43:58.462Z,100443.81
2022-10-28T19:46:27.122Z,100442.22
2022-10-28T19:48:58.230Z,100443.22
2022-10-28T19:51:30.832Z,100453.41
2022-10-28T19:54:13.160Z,100452.66
2022-10-28T19:56:40.854Z,100455.56
2022-10-28T19:59:08.227Z,100463.84
2022-10-28T20:01:38.392Z,100459.72
2022-10-28T20:04:06.691Z,100465.88
2022-10-28T20:06:36.600Z,100461.88
2022-10-28T20:09:04.571Z,100464.75
2022-10-28T20:11:34.081Z,100472.88
2022-10-28T20:14:04.667Z,100465.25
2022-10-28T20:16:33.662Z,100473.22
2022-10-28T20:19:00.943Z,100473.38
2022-10-28T20:21:33.248Z,100483.66
2022-10-28T20:24:01.308Z,100475.66
2022-10-28T20:26:31.047Z,100473.72
2022-10-28T20:29:00.039Z,100471.28
2022-10-28T20:31:32.251Z,100479.72
2022-10-28T20:34:04.939Z,100483.84
2022-10-28T20:36:42.343Z,100484.31
2022-10-28T20:39:17.905Z,100484.03
2022-10-28T20:41:48.526Z,100481.88
2022-10-28T20:44:22.029Z,100482.19
2022-10-28T20:46:51.981Z,100476.28
2022-10-28T20:49:20.815Z,100490.03
2022-10-28T20:51:50.429Z,100494.81
2022-10-28T20:54:17.585Z,100500.59
2022-10-28T20:56:44.935Z,100519.34
2022-10-28T20:59:12.135Z,100524.03
2022-10-28T21:01:41.508Z,100528.94
2022-10-28T21:04:12.176Z,100531.09
2022-10-28T21:06:40.619Z,100542.09
2022-10-28T21:09:09.119Z,100545.69
2022-10-28T21:11:36.827Z,100561.13
2022-10-28T21:14:03.941Z,100563.06
2022-10-28T21:16:31.720Z,100573.94
2022-10-28T21:18:59.678Z,100570.53
2022-10-28T21:21:27.943Z,100585.03
2022-10-28T21:26:22.403Z,100582.59
2022-10-28T21:28:52.334Z,100588.00
2022-10-28T21:31:21.089Z,100586.41
2022-10-28T21:36:35.498Z,100593.13
2022-10-28T21:39:02.436Z,100585.38
2022-10-28T21:41:29.456Z,100580.25
2022-10-28T21:43:56.751Z,100581.31
2022-10-28T21:46:24.787Z,100578.03
2022-10-28T21:48:53.024Z,100583.34
2022-10-28T21:51:20.062Z,100588.91
2022-10-28T21:53:47.199Z,100575.69
2022-10-28T21:56:18.156Z,100585.59
2022-10-28T21:58:47.470Z,100583.88
2022-10-28T22:01:15.964Z,100578.91
2022-10-28T22:03:43.482Z,100579.97
2022-10-28T22:06:10.672Z,100580.06
2022-10-28T22:08:37.930Z,100581.22
2022-10-28T22:11:07.324Z,100583.13
2022-10-28T22:13:34.838Z,100590.13
2022-10-28T22:16:04.861Z,100593.25
2022-10-28T22:18:33.803Z,100593.25
2022-10-28T22:21:06.297Z,100592.47
2022-10-28T22:23:33.433Z,100602.34
2022-10-28T22:26:09.206Z,100603.53
2022-10-28T22:28:36.193Z,100596.63
2022-10-28T22:31:06.530Z,100602.91
2022-10-28T22:33:34.535Z,100613.63
2022-10-28T22:36:04.688Z,100612.00
2022-10-28T22:38:31.879Z,100618.38
2022-10-28T22:41:19.647Z,100629.00
2022-10-28T22:43:50.615Z,100628.28
2022-10-28T22:46:18.586Z,100620.50
2022-10-28T22:48:46.644Z,100622.41
2022-10-28T22:51:14.080Z,100620.72
2022-10-28T22:53:41.293Z,100633.03
2022-10-28T22:56:11.594Z,100623.38
2022-10-28T22:58:38.489Z,100629.00
2022-10-28T23:01:09.453Z,100632.63
2022-10-28T23:03:38.355Z,100635.38
2022-10-28T23:06:06.003Z,100634.72
2022-10-28T23:08:33.393Z,100635.69
2022-10-28T23:11:00.603Z,100643.66
2022-10-28T23:13:27.801Z,100642.78
2022-10-28T23:15:55.504Z,100641.06
2022-10-28T23:18:27.337Z,100645.66
2022-10-28T23:20:54.247Z,100645.75
2022-10-28T23:23:21.398Z,100648.50
2022-10-28T23:25:57.583Z,100648.50
2022-10-28T23:28:24.758Z,100655.72
2022-10-28T23:30:51.669Z,100655.72
2022-10-28T23:33:18.623Z,100654.97
2022-10-28T23:35:45.496Z,100661.25
2022-10-28T23:38:16.695Z,100652.34
2022-10-28T23:40:43.569Z,100657.84
2022-10-28T23:43:10.422Z,100652.53
2022-10-28T23:45:39.216Z,100653.59
2022-10-28T23:48:06.265Z,100652.72
2022-10-28T23:50:33.212Z,100659.94
2022-10-28T23:53:00.104Z,100659.94
2022-10-28T23:55:26.935Z,100654.63
2022-10-28T23:57:56.971Z,100659.94
